createdAt,value
2022-12-31T00:00:19.617Z,9.01
2022-12-31T00:01:19.603Z,9.04
2022-12-31T00:02:19.651Z,9.11
2022-12-31T00:03:19.742Z,9.16
2022-12-31T00:04:19.623Z,9.23
2022-12-31T00:05:19.648Z,9.29
2022-12-31T00:06:19.644Z,9.38
2022-12-31T00:07:19.650Z,9.41
2022-12-31T00:08:20.000Z,9.46
2022-12-31T00:09:19.675Z,9.50
2022-12-31T00:10:19.687Z,9.55
2022-12-31T00:11:19.698Z,9.59
2022-12-31T00:12:19.702Z,9.65
2022-12-31T00:13:19.711Z,9.66
2022-12-31T00:14:19.722Z,9.71
2022-12-31T00:15:19.730Z,9.74
2022-12-31T00:16:19.813Z,9.77
2022-12-31T00:17:19.752Z,9.78
2022-12-31T00:18:19.758Z,9.81
2022-12-31T00:19:19.769Z,9.83
2022-12-31T00:20:19.778Z,9.85
2022-12-31T00:21:19.785Z,9.86
2022-12-31T00:22:19.795Z,9.88
2022-12-31T00:23:19.802Z,9.93
2022-12-31T00:24:19.816Z,9.92
2022-12-31T00:25:19.821Z,9.95
2022-12-31T00:26:19.832Z,9.95
2022-12-31T00:27:19.845Z,9.96
2022-12-31T00:28:19.856Z,9.97
2022-12-31T00:29:19.858Z,9.99
2022-12-31T00:30:19.873Z,10.01
2022-12-31T00:31:19.909Z,10.04
2022-12-31T00:32:19.893Z,10.03
2022-12-31T00:33:19.903Z,10.04
2022-12-31T00:34:19.914Z,10.05
2022-12-31T00:35:19.929Z,10.06
2022-12-31T00:36:19.940Z,10.06
2022-12-31T00:37:19.934Z,10.06
2022-12-31T00:38:19.940Z,10.07
2022-12-31T00:39:19.992Z,10.08
2022-12-31T00:40:19.959Z,10.08
2022-12-31T00:41:19.974Z,10.09
2022-12-31T00:42:19.976Z,10.11
2022-12-31T00:43:19.976Z,10.12
2022-12-31T00:44:19.984Z,10.12
2022-12-31T00:45:19.996Z,10.13
2022-12-31T00:46:20.034Z,10.14
2022-12-31T00:47:20.232Z,10.15
2022-12-31T00:48:20.028Z,10.17
2022-12-31T00:49:20.035Z,10.17
2022-12-31T00:50:20.047Z,10.19
2022-12-31T00:51:20.071Z,10.19
2022-12-31T00:52:20.068Z,10.19
2022-12-31T00:53:20.075Z,10.20
2022-12-31T00:54:20.083Z,10.21
2022-12-31T00:55:20.106Z,10.23
2022-12-31T00:56:20.093Z,10.22
2022-12-31T00:57:20.099Z,10.23
2022-12-31T00:58:20.111Z,10.24
2022-12-31T00:59:20.133Z,10.24
2022-12-31T01:00:20.130Z,10.25
2022-12-31T01:01:20.337Z,10.29
2022-12-31T01:02:20.346Z,10.28
2022-12-31T01:03:20.162Z,10.27
2022-12-31T01:04:20.193Z,10.29
2022-12-31T01:05:20.171Z,10.28
2022-12-31T01:06:20.177Z,10.30
2022-12-31T01:07:20.192Z,10.29
2022-12-31T01:08:20.183Z,10.27
2022-12-31T01:09:20.193Z,10.24
2022-12-31T01:10:20.205Z,10.24
2022-12-31T01:11:20.215Z,10.23
2022-12-31T01:12:20.227Z,10.24
2022-12-31T01:13:20.231Z,10.24
2022-12-31T01:14:20.244Z,10.27
2022-12-31T01:15:20.249Z,10.24
2022-12-31T01:16:20.257Z,10.27
2022-12-31T01:17:20.280Z,10.26
2022-12-31T01:18:20.282Z,10.27
2022-12-31T01:19:20.291Z,10.29
2022-12-31T01:20:20.293Z,10.29
2022-12-31T01:21:20.302Z,10.28
2022-12-31T01:22:20.332Z,10.29
2022-12-31T01:23:20.318Z,10.31
2022-12-31T01:24:20.338Z,10.30
2022-12-31T01:25:20.327Z,10.32
2022-12-31T01:26:20.342Z,10.31
2022-12-31T01:27:20.347Z,10.33
2022-12-31T01:28:20.352Z,10.33
2022-12-31T01:29:20.353Z,10.35
2022-12-31T01:30:20.369Z,10.37
2022-12-31T01:31:20.498Z,10.39
2022-12-31T01:32:20.388Z,10.39
2022-12-31T01:33:20.398Z,10.42
2022-12-31T01:34:20.405Z,10.44
2022-12-31T01:35:20.417Z,10.45
2022-12-31T01:36:25.490Z,10.48
2022-12-31T01:37:20.450Z,10.48
2022-12-31T01:38:20.437Z,10.49
2022-12-31T01:39:20.447Z,10.50
2022-12-31T01:40:20.474Z,10.50
2022-12-31T01:41:20.467Z,10.51
2022-12-31T01:42:20.478Z,10.50
2022-12-31T01:43:20.486Z,10.51
2022-12-31T01:44:20.493Z,10.51
2022-12-31T01:45:20.503Z,10.51
2022-12-31T01:46:20.542Z,10.53
2022-12-31T01:47:20.523Z,10.53
2022-12-31T01:48:20.536Z,10.51
2022-12-31T01:49:20.548Z,10.51
2022-12-31T01:50:20.557Z,10.50
2022-12-31T01:51:20.592Z,10.48
2022-12-31T01:52:20.577Z,10.49
2022-12-31T01:53:20.594Z,10.47
2022-12-31T02:11:20.969Z,10.52
2022-12-31T02:12:20.746Z,10.54
2022-12-31T02:13:20.753Z,10.56
2022-12-31T02:14:20.759Z,10.58
2022-12-31T02:15:20.766Z,10.57
2022-12-31T02:16:20.792Z,10.58
2022-12-31T02:17:20.786Z,10.59
2022-12-31T02:18:20.790Z,10.60
2022-12-31T02:19:20.883Z,10.60
2022-12-31T02:20:20.806Z,10.59
2022-12-31T02:21:20.812Z,10.62
2022-12-31T02:22:20.822Z,10.62
2022-12-31T02:23:20.833Z,10.60
2022-12-31T02:24:20.851Z,10.62
2022-12-31T02:25:20.870Z,10.61
2022-12-31T02:26:20.861Z,10.60
2022-12-31T02:27:20.872Z,10.59
2022-12-31T02:28:20.886Z,10.59
2022-12-31T02:29:20.973Z,10.59
2022-12-31T02:30:20.897Z,10.60
2022-12-31T02:31:20.971Z,10.63
2022-12-31T02:32:20.925Z,10.61
2022-12-31T02:33:20.944Z,10.65
2022-12-31T02:34:20.935Z,10.63
2022-12-31T02:35:20.951Z,10.64
2022-12-31T02:36:20.958Z,10.66
2022-12-31T02:37:20.964Z,10.68
2022-12-31T02:38:20.973Z,10.69
2022-12-31T02:39:20.973Z,10.69
2022-12-31T02:40:20.994Z,10.72
2022-12-31T02:41:20.999Z,10.74
2022-12-31T02:42:21.023Z,10.76
2022-12-31T02:43:21.024Z,10.76
2022-12-31T02:44:21.037Z,10.78
2022-12-31T02:45:21.051Z,10.77
2022-12-31T02:46:21.102Z,10.77
2022-12-31T02:47:21.064Z,10.75
2022-12-31T02:48:21.077Z,10.74
2022-12-31T02:49:21.081Z,10.73
2022-12-31T02:50:21.092Z,10.74
2022-12-31T02:51:21.102Z,10.72
2022-12-31T02:52:21.109Z,10.73
2022-12-31T02:53:21.119Z,10.71
2022-12-31T02:54:21.124Z,10.69
2022-12-31T02:55:21.142Z,10.69
2022-12-31T02:56:21.149Z,10.69
2022-12-31T02:57:21.163Z,10.70
2022-12-31T02:58:21.178Z,10.67
2022-12-31T02:59:21.218Z,10.69
2022-12-31T03:00:21.192Z,10.67
2022-12-31T03:01:21.329Z,10.68
2022-12-31T03:02:21.357Z,10.68
2022-12-31T03:03:21.226Z,10.68
2022-12-31T03:04:21.234Z,10.67
2022-12-31T03:05:21.246Z,10.68
2022-12-31T03:06:21.265Z,10.67
2022-12-31T03:07:21.265Z,10.67
2022-12-31T03:08:21.284Z,10.67
2022-12-31T03:09:21.289Z,10.68
2022-12-31T03:10:21.307Z,10.67
2022-12-31T03:11:21.311Z,10.68
2022-12-31T03:12:21.320Z,10.68
2022-12-31T03:13:21.333Z,10.68
2022-12-31T03:14:21.339Z,10.69
2022-12-31T03:15:21.393Z,10.69
2022-12-31T03:16:21.370Z,10.69
2022-12-31T03:17:21.365Z,10.69
2022-12-31T03:18:21.401Z,10.68
2022-12-31T03:19:21.392Z,10.67
2022-12-31T03:20:21.400Z,10.67
2022-12-31T03:21:21.412Z,10.67
2022-12-31T03:22:21.428Z,10.65
2022-12-31T03:23:21.457Z,10.68
2022-12-31T03:24:21.470Z,10.65
2022-12-31T03:25:21.461Z,10.65
2022-12-31T03:26:21.471Z,10.64
2022-12-31T03:27:21.486Z,10.64
2022-12-31T03:28:21.490Z,10.63
2022-12-31T03:29:21.498Z,10.63
2022-12-31T03:30:21.512Z,10.63
2022-12-31T03:31:21.555Z,10.63
2022-12-31T03:32:21.531Z,10.62
2022-12-31T03:33:21.541Z,10.62
2022-12-31T03:34:21.553Z,10.60
2022-12-31T03:35:21.577Z,10.60
2022-12-31T03:36:21.588Z,10.60
2022-12-31T03:37:21.588Z,10.59
2022-12-31T03:38:21.606Z,10.59
2022-12-31T03:39:21.610Z,10.59
2022-12-31T03:40:21.616Z,10.59
2022-12-31T03:41:21.635Z,10.61
2022-12-31T03:42:21.639Z,10.58
2022-12-31T03:43:21.654Z,10.59
2022-12-31T03:44:21.664Z,10.58
2022-12-31T03:45:21.671Z,10.57
2022-12-31T03:46:21.720Z,10.59
2022-12-31T03:47:21.681Z,10.59
2022-12-31T03:48:21.701Z,10.58
2022-12-31T03:49:21.708Z,10.59
2022-12-31T03:50:21.711Z,10.61
2022-12-31T03:51:21.717Z,10.60
2022-12-31T03:52:21.731Z,10.62
2022-12-31T03:53:21.740Z,10.62
2022-12-31T03:54:21.742Z,10.63
2022-12-31T03:55:21.753Z,10.63
2022-12-31T03:56:21.764Z,10.64
2022-12-31T03:57:21.770Z,10.63
2022-12-31T03:58:21.837Z,10.61
2022-12-31T03:59:21.793Z,10.61
2022-12-31T04:00:21.805Z,10.61
2022-12-31T04:01:21.855Z,10.60
2022-12-31T04:02:26.406Z,10.59
2022-12-31T04:03:21.879Z,10.59
2022-12-31T04:04:21.839Z,10.59
2022-12-31T04:05:21.851Z,10.58
2022-12-31T04:06:21.869Z,10.59
2022-12-31T04:07:21.875Z,10.57
2022-12-31T04:08:21.899Z,10.57
2022-12-31T04:09:21.899Z,10.57
2022-12-31T04:10:21.908Z,10.56
2022-12-31T04:11:21.920Z,10.55
2022-12-31T04:12:21.924Z,10.55
2022-12-31T04:13:21.947Z,10.53
2022-12-31T04:14:21.949Z,10.52
2022-12-31T04:15:21.960Z,10.50
2022-12-31T04:16:22.039Z,10.49
2022-12-31T04:17:21.979Z,10.48
2022-12-31T04:18:21.985Z,10.47
2022-12-31T04:19:21.988Z,10.46
2022-12-31T04:20:22.003Z,10.45
2022-12-31T04:21:22.009Z,10.45
2022-12-31T04:22:22.020Z,10.45
2022-12-31T04:23:22.032Z,10.44
2022-12-31T04:24:22.044Z,10.43
2022-12-31T04:25:22.066Z,10.41
2022-12-31T04:26:22.062Z,10.42
2022-12-31T04:27:22.075Z,10.42
2022-12-31T04:28:22.085Z,10.40
2022-12-31T04:29:22.091Z,10.40
2022-12-31T04:30:22.119Z,10.40
2022-12-31T04:31:22.175Z,10.39
2022-12-31T04:32:22.117Z,10.39
2022-12-31T04:33:22.132Z,10.38
2022-12-31T04:34:22.144Z,10.38
2022-12-31T04:35:22.151Z,10.37
2022-12-31T04:36:22.160Z,10.37
2022-12-31T04:37:22.172Z,10.37
2022-12-31T04:38:22.182Z,10.37
2022-12-31T04:39:22.195Z,10.37
2022-12-31T04:40:22.217Z,10.36
2022-12-31T04:41:22.215Z,10.37
2022-12-31T04:42:22.231Z,10.40
2022-12-31T04:43:22.239Z,10.37
2022-12-31T04:44:22.248Z,10.38
2022-12-31T04:45:22.265Z,10.37
2022-12-31T04:46:22.303Z,10.37
2022-12-31T04:47:23.918Z,10.38
2022-12-31T04:48:22.283Z,10.37
2022-12-31T04:49:22.296Z,10.37
2022-12-31T04:50:22.300Z,10.38
2022-12-31T04:51:22.340Z,10.37
2022-12-31T04:52:22.333Z,10.37
2022-12-31T04:53:22.331Z,10.37
2022-12-31T04:54:22.343Z,10.38
2022-12-31T04:55:22.356Z,10.39
2022-12-31T04:56:22.365Z,10.38
2022-12-31T04:57:22.377Z,10.37
2022-12-31T04:58:22.395Z,10.38
2022-12-31T04:59:22.402Z,10.38
2022-12-31T05:00:22.422Z,10.38
2022-12-31T05:01:22.511Z,10.41
2022-12-31T05:02:22.649Z,10.40
2022-12-31T05:03:22.519Z,10.39
2022-12-31T05:04:22.446Z,10.40
2022-12-31T05:05:22.462Z,10.40
2022-12-31T05:06:22.473Z,10.39
2022-12-31T05:07:22.484Z,10.39
2022-12-31T05:08:22.488Z,10.40
2022-12-31T05:09:22.499Z,10.38
2022-12-31T05:10:22.517Z,10.41
2022-12-31T05:11:22.524Z,10.39
2022-12-31T05:12:22.560Z,10.40
2022-12-31T05:13:24.752Z,10.39
2022-12-31T05:14:22.576Z,10.38
2022-12-31T05:15:22.568Z,10.40
2022-12-31T05:16:22.632Z,10.39
2022-12-31T05:17:22.585Z,10.38
2022-12-31T05:18:22.591Z,10.37
2022-12-31T05:19:22.608Z,10.38
2022-12-31T05:20:22.621Z,10.38
2022-12-31T05:21:22.627Z,10.37
2022-12-31T05:22:22.640Z,10.37
2022-12-31T05:23:22.656Z,10.37
2022-12-31T05:24:22.657Z,10.36
2022-12-31T05:25:22.687Z,10.35
2022-12-31T05:26:22.679Z,10.35
2022-12-31T05:27:22.693Z,10.35
2022-12-31T05:28:22.697Z,10.37
2022-12-31T05:29:22.708Z,10.34
2022-12-31T05:30:22.727Z,10.35
2022-12-31T05:31:22.745Z,10.34
2022-12-31T05:32:22.737Z,10.33
2022-12-31T05:33:22.749Z,10.34
2022-12-31T05:34:22.759Z,10.34
2022-12-31T05:35:22.769Z,10.34
2022-12-31T05:36:22.779Z,10.33
2022-12-31T05:37:22.788Z,10.32
2022-12-31T05:38:22.795Z,10.32
2022-12-31T05:39:22.809Z,10.32
2022-12-31T05:40:22.814Z,10.33
2022-12-31T05:41:22.815Z,10.32
2022-12-31T05:42:22.841Z,10.32
2022-12-31T05:43:22.842Z,10.31
2022-12-31T05:44:22.854Z,10.31
2022-12-31T05:45:28.589Z,10.33
2022-12-31T05:46:22.905Z,10.33
2022-12-31T05:47:22.912Z,10.32
2022-12-31T05:48:22.915Z,10.32
2022-12-31T05:49:22.912Z,10.33
2022-12-31T05:50:22.923Z,10.33
2022-12-31T05:51:22.934Z,10.33
2022-12-31T05:52:22.946Z,10.32
2022-12-31T05:53:22.971Z,10.32
2022-12-31T05:54:22.965Z,10.32
2022-12-31T05:55:22.982Z,10.32
2022-12-31T05:56:22.985Z,10.32
2022-12-31T05:57:23.001Z,10.32
2022-12-31T05:58:23.013Z,10.31
2022-12-31T05:59:23.022Z,10.31
2022-12-31T06:00:23.027Z,10.32
2022-12-31T06:01:23.086Z,10.31
2022-12-31T06:02:23.110Z,10.30
2022-12-31T06:03:23.070Z,10.30
2022-12-31T06:04:23.068Z,10.29
2022-12-31T06:05:26.229Z,10.30
2022-12-31T06:06:23.091Z,10.29
2022-12-31T06:07:23.102Z,10.29
2022-12-31T06:08:23.113Z,10.28
2022-12-31T06:09:23.122Z,10.28
2022-12-31T06:10:23.139Z,10.28
2022-12-31T06:11:23.130Z,10.28
2022-12-31T06:12:23.138Z,10.28
2022-12-31T06:13:23.158Z,10.27
2022-12-31T06:14:23.161Z,10.26
2022-12-31T06:15:23.176Z,10.24
2022-12-31T06:16:23.217Z,10.23
2022-12-31T06:17:23.195Z,10.22
2022-12-31T06:18:23.209Z,10.22
2022-12-31T06:19:23.219Z,10.20
2022-12-31T06:20:23.223Z,10.20
2022-12-31T06:21:23.234Z,10.18
2022-12-31T06:22:23.235Z,10.18
2022-12-31T06:23:23.254Z,10.18
2022-12-31T06:24:23.252Z,10.18
2022-12-31T06:25:23.269Z,10.18
2022-12-31T06:26:23.276Z,10.18
2022-12-31T06:27:23.294Z,10.17
2022-12-31T06:28:23.306Z,10.18
2022-12-31T06:29:23.307Z,10.18
2022-12-31T06:30:23.315Z,10.18
2022-12-31T06:31:23.381Z,10.18
2022-12-31T06:32:23.338Z,10.18
2022-12-31T06:33:23.336Z,10.19
2022-12-31T06:34:23.357Z,10.18
2022-12-31T06:35:23.384Z,10.19
2022-12-31T06:36:23.376Z,10.19
2022-12-31T06:37:23.401Z,10.19
2022-12-31T06:38:23.401Z,10.19
2022-12-31T06:39:23.410Z,10.19
2022-12-31T06:40:23.422Z,10.18
2022-12-31T06:41:23.429Z,10.19
2022-12-31T06:42:23.442Z,10.19
2022-12-31T06:43:23.462Z,10.18
2022-12-31T06:44:23.472Z,10.18
2022-12-31T06:45:23.488Z,10.17
2022-12-31T06:46:23.533Z,10.17
2022-12-31T06:47:23.507Z,10.17
2022-12-31T06:48:23.521Z,10.18
2022-12-31T06:49:23.535Z,10.18
2022-12-31T06:50:23.574Z,10.17
2022-12-31T06:51:23.566Z,10.16
2022-12-31T06:52:23.572Z,10.16
2022-12-31T06:53:23.583Z,10.15
2022-12-31T06:54:23.606Z,10.15
2022-12-31T06:55:23.610Z,10.15
2022-12-31T06:56:27.983Z,10.14
2022-12-31T06:57:23.632Z,10.15
2022-12-31T06:58:23.643Z,10.13
2022-12-31T06:59:23.663Z,10.13
2022-12-31T07:00:23.664Z,10.12
2022-12-31T07:01:23.759Z,10.13
2022-12-31T07:02:23.791Z,10.12
2022-12-31T07:03:23.733Z,10.11
2022-12-31T07:04:23.715Z,10.12
2022-12-31T07:05:23.721Z,10.12
2022-12-31T07:06:23.728Z,10.12
2022-12-31T07:07:23.740Z,10.11
2022-12-31T07:08:23.747Z,10.10
2022-12-31T07:09:23.759Z,10.11
2022-12-31T07:10:29.151Z,10.10
2022-12-31T07:11:23.782Z,10.10
2022-12-31T07:12:23.791Z,10.10
2022-12-31T07:13:23.819Z,10.10
2022-12-31T07:14:23.824Z,10.10
2022-12-31T07:15:23.822Z,10.11
2022-12-31T07:16:23.887Z,10.09
2022-12-31T07:17:23.848Z,10.09
2022-12-31T07:18:23.864Z,10.08
2022-12-31T07:19:23.870Z,10.07
2022-12-31T07:20:23.877Z,10.07
2022-12-31T07:21:23.889Z,10.08
2022-12-31T07:22:23.911Z,10.08
2022-12-31T07:23:23.917Z,10.10
2022-12-31T07:24:23.924Z,10.09
2022-12-31T07:25:23.931Z,10.10
2022-12-31T07:26:23.943Z,10.10
2022-12-31T07:27:23.945Z,10.09
2022-12-31T07:28:23.959Z,10.08
2022-12-31T07:29:23.966Z,10.08
2022-12-31T07:30:23.973Z,10.07
2022-12-31T07:31:24.017Z,10.09
2022-12-31T07:32:23.995Z,10.09
2022-12-31T07:33:24.000Z,10.09
2022-12-31T07:34:24.024Z,10.10
2022-12-31T07:35:24.963Z,10.09
2022-12-31T07:36:24.036Z,10.09
2022-12-31T07:37:24.042Z,10.08
2022-12-31T07:38:24.051Z,10.08
2022-12-31T07:39:24.058Z,10.08
2022-12-31T07:40:24.068Z,10.07
2022-12-31T07:41:24.082Z,10.07
2022-12-31T07:42:24.097Z,10.06
2022-12-31T07:43:24.110Z,10.06
2022-12-31T07:44:24.142Z,10.07
2022-12-31T07:45:24.141Z,10.06
2022-12-31T07:46:24.176Z,10.06
2022-12-31T07:47:24.166Z,10.07
2022-12-31T07:48:24.174Z,10.07
2022-12-31T07:49:24.169Z,10.07
2022-12-31T07:50:24.195Z,10.08
2022-12-31T07:51:24.185Z,10.07
2022-12-31T07:52:24.201Z,10.07
2022-12-31T07:53:24.215Z,10.09
2022-12-31T07:54:24.225Z,10.08
2022-12-31T07:55:24.230Z,10.07
2022-12-31T07:56:24.241Z,10.07
2022-12-31T07:57:24.256Z,10.08
2022-12-31T07:58:24.261Z,10.08
2022-12-31T07:59:24.809Z,10.09
2022-12-31T08:00:24.287Z,10.09
2022-12-31T08:01:24.421Z,10.10
2022-12-31T08:02:24.383Z,10.10
2022-12-31T08:03:24.322Z,10.11
2022-12-31T08:04:24.331Z,10.09
2022-12-31T08:05:24.337Z,10.09
2022-12-31T08:06:24.349Z,10.10
2022-12-31T08:07:24.366Z,10.11
2022-12-31T08:08:24.377Z,10.11
2022-12-31T08:09:24.387Z,10.11
2022-12-31T08:10:24.397Z,10.10
2022-12-31T08:11:24.409Z,10.13
2022-12-31T08:12:24.418Z,10.10
2022-12-31T08:13:24.427Z,10.13
2022-12-31T08:14:24.435Z,10.11
2022-12-31T08:15:30.117Z,10.14
2022-12-31T08:16:24.499Z,10.13
2022-12-31T08:17:24.468Z,10.14
2022-12-31T08:18:24.477Z,10.15
2022-12-31T08:19:24.490Z,10.15
2022-12-31T08:20:24.545Z,10.14
2022-12-31T08:21:27.142Z,10.13
2022-12-31T08:22:24.518Z,10.12
2022-12-31T08:23:24.528Z,10.12
2022-12-31T08:24:24.535Z,10.12
2022-12-31T08:25:24.555Z,10.11
2022-12-31T08:26:24.552Z,10.10
2022-12-31T08:27:24.570Z,10.10
2022-12-31T08:28:24.571Z,10.11
2022-12-31T08:29:24.614Z,10.10
2022-12-31T08:30:24.613Z,10.12
2022-12-31T08:31:24.637Z,10.13
2022-12-31T08:32:24.627Z,10.14
2022-12-31T08:33:24.665Z,10.15
2022-12-31T08:34:24.642Z,10.17
2022-12-31T08:35:24.657Z,10.20
2022-12-31T08:36:24.663Z,10.22
2022-12-31T08:37:24.679Z,10.22
2022-12-31T08:38:24.694Z,10.24
2022-12-31T08:39:24.707Z,10.28
2022-12-31T08:40:24.722Z,10.30
2022-12-31T08:41:24.731Z,10.32
2022-12-31T08:42:24.746Z,10.34
2022-12-31T08:43:24.750Z,10.39
2022-12-31T08:44:24.768Z,10.43
2022-12-31T08:45:24.861Z,10.44
2022-12-31T08:46:24.789Z,10.49
2022-12-31T08:47:24.794Z,10.52
2022-12-31T08:48:24.830Z,10.54
2022-12-31T08:49:24.819Z,10.56
2022-12-31T08:50:24.830Z,10.59
2022-12-31T08:51:24.848Z,10.63
2022-12-31T08:52:24.875Z,10.68
2022-12-31T08:53:24.871Z,10.71
2022-12-31T08:54:24.875Z,10.74
2022-12-31T08:55:24.889Z,10.77
2022-12-31T08:56:24.899Z,10.80
2022-12-31T08:57:24.906Z,10.83
2022-12-31T08:58:24.932Z,10.85
2022-12-31T08:59:24.927Z,10.87
2022-12-31T09:00:24.940Z,10.88
2022-12-31T09:01:25.052Z,10.92
2022-12-31T09:02:24.964Z,10.93
2022-12-31T09:03:24.978Z,10.96
2022-12-31T09:04:25.111Z,10.97
2022-12-31T09:05:25.005Z,11.00
2022-12-31T09:06:25.004Z,11.04
2022-12-31T09:07:25.030Z,11.05
2022-12-31T09:08:25.030Z,11.10
2022-12-31T09:09:25.038Z,11.11
2022-12-31T09:10:25.044Z,11.13
2022-12-31T09:11:25.061Z,11.15
2022-12-31T09:12:25.070Z,11.18
2022-12-31T09:13:25.076Z,11.19
2022-12-31T09:14:25.090Z,11.23
2022-12-31T09:15:25.108Z,11.26
2022-12-31T09:16:25.140Z,11.28
2022-12-31T09:17:25.136Z,11.27
2022-12-31T09:18:29.724Z,11.28
2022-12-31T09:19:25.154Z,11.28
2022-12-31T09:20:25.173Z,11.28
2022-12-31T09:21:25.175Z,11.27
2022-12-31T09:22:25.240Z,11.27
2022-12-31T09:23:25.199Z,11.27
2022-12-31T09:24:25.217Z,11.29
2022-12-31T09:25:25.222Z,11.26
2022-12-31T09:26:25.240Z,11.28
2022-12-31T09:27:27.726Z,11.29
2022-12-31T09:28:25.270Z,11.28
2022-12-31T09:29:25.277Z,11.25
2022-12-31T09:30:25.337Z,11.27
2022-12-31T09:31:25.302Z,11.27
2022-12-31T09:32:25.292Z,11.25
2022-12-31T09:33:25.302Z,11.24
2022-12-31T09:34:25.317Z,11.26
2022-12-31T09:35:25.325Z,11.26
2022-12-31T09:36:25.341Z,11.27
2022-12-31T09:37:25.355Z,11.30
2022-12-31T09:38:25.376Z,11.29
2022-12-31T09:39:25.385Z,11.31
2022-12-31T09:40:25.392Z,11.30
2022-12-31T09:41:25.409Z,11.31
2022-12-31T09:42:25.440Z,11.31
2022-12-31T09:43:25.443Z,11.33
2022-12-31T09:44:25.449Z,11.35
2022-12-31T09:45:25.461Z,11.37
2022-12-31T09:46:25.478Z,11.40
2022-12-31T09:47:25.486Z,11.42
2022-12-31T09:48:25.495Z,11.42
2022-12-31T09:49:25.515Z,11.42
2022-12-31T09:50:25.522Z,11.42
2022-12-31T09:51:25.803Z,11.40
2022-12-31T09:52:25.547Z,11.39
2022-12-31T09:53:25.560Z,11.38
2022-12-31T09:54:25.570Z,11.38
2022-12-31T09:55:25.597Z,11.37
2022-12-31T09:56:25.593Z,11.36
2022-12-31T09:57:25.607Z,11.35
2022-12-31T09:58:25.620Z,11.34
2022-12-31T09:59:25.637Z,11.33
2022-12-31T10:00:25.651Z,11.31
2022-12-31T10:01:25.769Z,11.30
2022-12-31T10:02:25.771Z,11.29
2022-12-31T10:03:25.844Z,11.27
2022-12-31T10:04:25.697Z,11.26
2022-12-31T10:05:25.706Z,11.25
2022-12-31T10:06:25.719Z,11.25
2022-12-31T10:07:25.723Z,11.24
2022-12-31T10:08:25.731Z,11.23
2022-12-31T10:09:25.738Z,11.25
2022-12-31T10:10:25.753Z,11.23
2022-12-31T10:11:25.765Z,11.24
2022-12-31T10:12:25.778Z,11.21
2022-12-31T10:13:25.820Z,11.21
2022-12-31T10:14:25.804Z,11.20
2022-12-31T10:15:25.826Z,11.20
2022-12-31T10:16:25.937Z,11.18
2022-12-31T10:17:25.844Z,11.19
2022-12-31T10:18:25.850Z,11.18
2022-12-31T10:19:25.857Z,11.19
2022-12-31T10:20:25.878Z,11.18
2022-12-31T10:21:25.882Z,11.18
2022-12-31T10:22:25.890Z,11.18
2022-12-31T10:23:25.909Z,11.19
2022-12-31T10:24:25.922Z,11.19
2022-12-31T10:25:37.882Z,11.19
2022-12-31T10:26:25.940Z,11.18
2022-12-31T10:27:25.949Z,11.19
2022-12-31T10:28:25.960Z,11.19
2022-12-31T10:29:25.968Z,11.20
2022-12-31T10:30:25.984Z,11.19
2022-12-31T10:31:25.998Z,11.18
2022-12-31T10:32:31.125Z,11.20
2022-12-31T10:33:26.029Z,11.20
2022-12-31T10:34:26.042Z,11.21
2022-12-31T10:35:26.043Z,11.22
2022-12-31T10:36:26.051Z,11.25
2022-12-31T10:37:26.065Z,11.25
2022-12-31T10:38:26.087Z,11.28
2022-12-31T10:39:26.081Z,11.26
2022-12-31T10:40:26.098Z,11.27
2022-12-31T10:41:26.111Z,11.28
2022-12-31T10:42:26.121Z,11.29
2022-12-31T10:43:26.139Z,11.31
2022-12-31T10:44:26.144Z,11.29
2022-12-31T10:45:26.161Z,11.28
2022-12-31T10:46:26.193Z,11.28
2022-12-31T10:47:26.176Z,11.31
2022-12-31T10:48:26.189Z,11.32
2022-12-31T10:49:26.207Z,11.34
2022-12-31T10:50:26.212Z,11.35
2022-12-31T10:51:26.229Z,11.35
2022-12-31T10:52:26.244Z,11.37
2022-12-31T10:53:26.248Z,11.37
2022-12-31T10:54:26.269Z,11.35
2022-12-31T10:55:26.271Z,11.36
2022-12-31T10:56:26.291Z,11.36
2022-12-31T10:57:26.294Z,11.36
2022-12-31T10:58:26.300Z,11.37
2022-12-31T10:59:26.307Z,11.36
2022-12-31T11:00:26.312Z,11.36
2022-12-31T11:01:26.387Z,11.34
2022-12-31T11:02:26.519Z,11.34
2022-12-31T11:03:29.457Z,11.35
2022-12-31T11:04:26.358Z,11.35
2022-12-31T11:05:26.374Z,11.36
2022-12-31T11:06:26.393Z,11.38
2022-12-31T11:07:26.407Z,11.38
2022-12-31T11:08:26.431Z,11.39
2022-12-31T11:09:29.937Z,11.41
2022-12-31T11:10:26.436Z,11.42
2022-12-31T11:11:26.467Z,11.42
2022-12-31T11:12:26.464Z,11.44
2022-12-31T11:13:26.466Z,11.46
2022-12-31T11:14:26.468Z,11.45
2022-12-31T11:15:26.577Z,11.47
2022-12-31T11:16:26.546Z,11.46
2022-12-31T11:17:26.512Z,11.47
2022-12-31T11:18:26.503Z,11.48
2022-12-31T11:19:26.513Z,11.48
2022-12-31T11:20:26.530Z,11.49
2022-12-31T11:21:28.532Z,11.50
2022-12-31T11:22:26.556Z,11.51
2022-12-31T11:23:26.563Z,11.52
2022-12-31T11:24:26.577Z,11.53
2022-12-31T11:25:26.590Z,11.55
2022-12-31T11:26:26.607Z,11.58
2022-12-31T11:27:26.613Z,11.60
2022-12-31T11:28:26.629Z,11.62
2022-12-31T11:29:26.641Z,11.62
2022-12-31T11:30:26.647Z,11.63
2022-12-31T11:31:26.705Z,11.65
2022-12-31T11:32:26.674Z,11.69
2022-12-31T11:33:26.681Z,11.69
2022-12-31T11:34:26.696Z,11.73
2022-12-31T11:35:26.707Z,11.77
2022-12-31T11:36:26.719Z,11.82
2022-12-31T11:37:26.727Z,11.83
2022-12-31T11:38:26.744Z,11.87
2022-12-31T11:39:30.890Z,11.91
2022-12-31T11:40:26.777Z,11.95
2022-12-31T11:41:26.784Z,11.97
2022-12-31T11:42:26.804Z,12.03
2022-12-31T11:43:26.812Z,12.01
2022-12-31T11:44:26.830Z,12.04
2022-12-31T11:45:26.846Z,12.07
2022-12-31T11:46:26.929Z,12.14
2022-12-31T11:47:26.851Z,12.15
2022-12-31T11:48:31.186Z,12.19
2022-12-31T11:49:26.863Z,12.21
2022-12-31T11:50:26.880Z,12.24
2022-12-31T11:51:26.889Z,12.26
2022-12-31T11:52:26.906Z,12.27
2022-12-31T11:53:26.923Z,12.29
2022-12-31T11:54:26.935Z,12.29
2022-12-31T11:55:26.967Z,12.31
2022-12-31T11:56:26.973Z,12.33
2022-12-31T11:57:26.968Z,12.34
2022-12-31T11:58:26.976Z,12.36
2022-12-31T11:59:26.981Z,12.38
2022-12-31T12:00:26.990Z,12.40
2022-12-31T12:01:27.074Z,12.45
2022-12-31T12:02:27.088Z,12.47
2022-12-31T12:03:27.065Z,12.50
2022-12-31T12:04:27.033Z,12.51
2022-12-31T12:05:27.052Z,12.53
2022-12-31T12:06:27.070Z,12.53
2022-12-31T12:07:27.488Z,12.51
2022-12-31T12:08:27.088Z,12.52
2022-12-31T12:09:27.104Z,12.53
2022-12-31T12:10:33.696Z,12.53
2022-12-31T12:11:27.140Z,12.54
2022-12-31T12:12:27.148Z,12.55
2022-12-31T12:13:27.162Z,12.57
2022-12-31T12:14:27.161Z,12.62
2022-12-31T12:15:27.180Z,12.62
2022-12-31T12:16:27.233Z,12.64
2022-12-31T12:17:27.213Z,12.63
2022-12-31T12:18:27.228Z,12.64
2022-12-31T12:19:27.229Z,12.61
2022-12-31T12:20:27.254Z,12.60
2022-12-31T12:21:27.256Z,12.60
2022-12-31T12:22:27.346Z,12.59
2022-12-31T12:23:27.286Z,12.56
2022-12-31T12:24:27.322Z,12.54
2022-12-31T12:25:27.315Z,12.50
2022-12-31T12:26:27.337Z,12.49
2022-12-31T12:27:27.378Z,12.48
2022-12-31T12:28:27.378Z,12.45
2022-12-31T12:29:27.362Z,12.44
2022-12-31T12:30:27.413Z,12.42
2022-12-31T12:31:27.460Z,12.46
2022-12-31T12:32:27.431Z,12.55
2022-12-31T12:33:27.403Z,12.62
2022-12-31T12:34:27.418Z,12.66
2022-12-31T12:35:27.440Z,12.68
2022-12-31T12:36:27.447Z,12.67
2022-12-31T12:37:27.458Z,12.65
2022-12-31T12:38:27.473Z,12.60
2022-12-31T12:39:27.487Z,12.55
2022-12-31T12:40:33.591Z,12.51
2022-12-31T12:41:27.511Z,12.49
2022-12-31T12:42:27.528Z,12.46
2022-12-31T12:43:27.534Z,12.45
2022-12-31T12:44:27.540Z,12.44
2022-12-31T12:45:27.557Z,12.45
2022-12-31T12:46:27.608Z,12.48
2022-12-31T12:47:27.579Z,12.50
2022-12-31T12:48:27.587Z,12.55
2022-12-31T12:49:27.604Z,12.58
2022-12-31T12:50:27.609Z,12.61
2022-12-31T12:51:27.622Z,12.65
2022-12-31T12:52:27.634Z,12.68
2022-12-31T12:53:27.647Z,12.71
2022-12-31T12:54:27.655Z,12.73
2022-12-31T12:55:27.681Z,12.75
2022-12-31T12:56:27.690Z,12.79
2022-12-31T12:57:27.698Z,12.78
2022-12-31T12:58:27.714Z,12.81
2022-12-31T12:59:27.727Z,12.80
2022-12-31T13:00:27.740Z,12.81
2022-12-31T13:01:27.875Z,12.81
2022-12-31T13:02:27.840Z,12.81
2022-12-31T13:03:27.767Z,12.82
2022-12-31T13:04:35.676Z,12.81
2022-12-31T13:05:28.359Z,12.80
2022-12-31T13:06:27.819Z,12.82
2022-12-31T13:07:27.818Z,12.82
2022-12-31T13:08:27.832Z,12.82
2022-12-31T13:09:27.932Z,12.81
2022-12-31T13:10:27.853Z,12.82